Time;durP1;ratioP1;P1;durP2;ratioP2;P2;SDS_P1;SDS_P2;PMS_P1;PMS_P2;Temp;Humidity;BMP_temperature;BMP_pressure;BME280_temperature;BME280_humidity;BME280_pressure;Samples;Min_cycle;Max_cycle;Signal;HPM_P1;HPM_P2
2021/07/23 00:00:10;;;;;;;11.57;9.77;;;;;;;;;;5012044;28;20201;-75
2021/07/23 00:02:37;;;;;;;14.23;9.90;;;;;;;;;;5012246;28;20193;-75
2021/07/23 00:05:05;;;;;;;11.50;9.60;;;;;;;;;;5012395;28;20292;-75
2021/07/23 00:07:32;;;;;;;12.93;9.70;;;;;;;;;;5010743;28;20211;-75
2021/07/23 00:09:59;;;;;;;13.43;10.30;;;;;;;;;;5001709;28;20328;-75
2021/07/23 00:12:26;;;;;;;10.93;9.67;;;;;;;;;;4992472;28;20288;-75
2021/07/23 00:14:53;;;;;;;11.93;9.80;;;;;;;;;;4991932;28;20644;-75
2021/07/23 00:17:22;;;;;;;13.07;9.93;;;;;;;;;;4992476;28;20261;-75
2021/07/23 00:19:49;;;;;;;14.20;9.80;;;;;;;;;;4992478;28;20297;-75
2021/07/23 00:22:16;;;;;;;15.33;10.27;;;;;;;;;;4992354;28;20289;-75
2021/07/23 00:24:43;;;;;;;12.13;9.97;;;;;;;;;;4992490;28;20288;-75
2021/07/23 00:27:10;;;;;;;13.73;10.13;;;;;;;;;;4992435;28;20292;-75
2021/07/23 00:29:37;;;;;;;15.47;10.23;;;;;;;;;;4992393;28;20293;-75
2021/07/23 00:32:05;;;;;;;10.27;9.20;;;;;;;;;;4992629;28;20288;-74
2021/07/23 00:34:33;;;;;;;13.43;10.37;;;;;;;;;;4992401;28;20400;-75
2021/07/23 00:37:00;;;;;;;11.60;9.57;;;;;;;;;;4992366;28;20233;-75
2021/07/23 00:39:28;;;;;;;11.50;9.60;;;;;;;;;;4992497;28;20801;-75
2021/07/23 00:41:55;;;;;;;13.50;10.10;;;;;;;;;;4991925;28;20205;-75
2021/07/23 00:44:22;;;;;;;13.23;10.53;;;;;;;;;;4999007;28;20209;-75
2021/07/23 00:46:49;;;;;;;12.53;10.90;;;;;;;;;;5011775;28;20291;-75
2021/07/23 00:49:17;;;;;;;12.87;10.77;;;;;;;;;;5011830;28;20251;-75
2021/07/23 00:51:45;;;;;;;12.33;10.97;;;;;;;;;;5013492;28;20717;-75
2021/07/23 00:54:13;;;;;;;13.10;10.27;;;;;;;;;;5016079;28;20315;-75
2021/07/23 00:56:40;;;;;;;11.77;9.67;;;;;;;;;;5015321;28;20699;-75
2021/07/23 00:59:07;;;;;;;13.00;10.33;;;;;;;;;;5015604;28;20296;-75
2021/07/23 01:01:35;;;;;;;14.63;10.60;;;;;;;;;;5015899;28;20308;-75
2021/07/23 01:04:03;;;;;;;12.53;10.50;;;;;;;;;;5015725;28;20197;-75
2021/07/23 01:06:31;;;;;;;11.80;10.47;;;;;;;;;;5015513;28;20780;-75
2021/07/23 01:09:00;;;;;;;12.23;9.87;;;;;;;;;;5013205;28;20332;-75
2021/07/23 01:11:27;;;;;;;13.37;10.80;;;;;;;;;;5014786;28;20295;-75
2021/07/23 01:13:54;;;;;;;12.53;10.43;;;;;;;;;;5008045;28;20301;-75
2021/07/23 01:16:21;;;;;;;12.90;10.47;;;;;;;;;;4995687;28;20687;-75
2021/07/23 01:18:49;;;;;;;12.23;10.23;;;;;;;;;;4995550;28;20216;-75
2021/07/23 01:21:17;;;;;;;15.03;10.67;;;;;;;;;;4995903;28;20292;-75
2021/07/23 01:23:46;;;;;;;13.60;10.80;;;;;;;;;;4995773;28;20209;-75
2021/07/23 01:26:14;;;;;;;11.87;10.37;;;;;;;;;;4994036;28;20198;-74
2021/07/23 01:28:45;;;;;;;13.23;11.23;;;;;;;;;;4995503;28;20296;-75
2021/07/23 01:31:12;;;;;;;13.17;10.57;;;;;;;;;;4995065;28;20205;-75
2021/07/23 01:33:39;;;;;;;11.93;10.40;;;;;;;;;;4995362;28;20226;-75
2021/07/23 01:36:07;;;;;;;14.53;11.17;;;;;;;;;;4995534;28;20289;-74
2021/07/23 01:38:35;;;;;;;12.53;10.53;;;;;;;;;;4995296;28;20296;-75
2021/07/23 01:41:04;;;;;;;13.53;11.23;;;;;;;;;;4994592;28;20598;-75
2021/07/23 01:43:31;;;;;;;13.53;10.97;;;;;;;;;;4995253;28;20297;-75
2021/07/23 01:45:59;;;;;;;11.93;10.17;;;;;;;;;;5014320;28;20300;-74
2021/07/23 01:48:26;;;;;;;14.57;10.73;;;;;;;;;;5014661;28;20207;-75
2021/07/23 01:50:54;;;;;;;13.17;10.43;;;;;;;;;;5014563;28;20196;-75
2021/07/23 01:53:21;;;;;;;13.30;10.70;;;;;;;;;;5014743;28;20217;-75
2021/07/23 01:55:48;;;;;;;13.07;10.53;;;;;;;;;;5014370;28;20288;-75
2021/07/23 01:58:18;;;;;;;13.70;10.97;;;;;;;;;;5014666;28;20621;-75
2021/07/23 02:00:45;;;;;;;12.77;10.00;;;;;;;;;;5014534;28;20687;-75
2021/07/23 02:03:12;;;;;;;11.97;10.30;;;;;;;;;;5013443;28;20288;-75
2021/07/23 02:05:39;;;;;;;14.93;11.07;;;;;;;;;;5014397;28;20293;-75
2021/07/23 02:08:07;;;;;;;16.50;10.40;;;;;;;;;;5013974;28;20233;-75
2021/07/23 02:10:34;;;;;;;15.90;11.30;;;;;;;;;;5013769;28;20606;-75
2021/07/23 02:13:02;;;;;;;13.23;10.80;;;;;;;;;;4994498;28;20738;-75
2021/07/23 02:15:30;;;;;;;13.50;11.80;;;;;;;;;;4994976;28;20301;-75
2021/07/23 02:17:57;;;;;;;13.97;11.07;;;;;;;;;;4994560;28;20731;-75
2021/07/23 02:20:24;;;;;;;13.07;10.70;;;;;;;;;;4994467;28;20704;-75
2021/07/23 02:22:51;;;;;;;15.00;11.70;;;;;;;;;;4994503;28;20205;-75
2021/07/23 02:25:19;;;;;;;13.27;10.80;;;;;;;;;;4993768;28;20301;-75
2021/07/23 02:27:46;;;;;;;13.40;10.67;;;;;;;;;;5003295;28;20647;-75
2021/07/23 02:30:14;;;;;;;12.70;10.50;;;;;;;;;;4994437;28;20201;-75
2021/07/23 02:32:42;;;;;;;14.20;11.27;;;;;;;;;;4994348;28;20753;-75
2021/07/23 02:35:10;;;;;;;13.90;10.73;;;;;;;;;;4994190;28;20317;-75
2021/07/23 02:37:38;;;;;;;12.90;11.03;;;;;;;;;;4994445;28;20237;-75
2021/07/23 02:40:06;;;;;;;12.63;11.30;;;;;;;;;;4993851;28;20202;-74
2021/07/23 02:42:33;;;;;;;13.70;11.33;;;;;;;;;;4994146;28;20233;-76
2021/07/23 02:45:00;;;;;;;14.00;11.00;;;;;;;;;;5000647;28;20211;-76
2021/07/23 02:47:27;;;;;;;13.87;11.50;;;;;;;;;;5013541;28;20305;-76
2021/07/23 02:49:56;;;;;;;15.17;11.53;;;;;;;;;;5013381;28;20236;-75
2021/07/23 02:52:23;;;;;;;14.10;11.10;;;;;;;;;;5012816;28;20672;-76
2021/07/23 02:54:50;;;;;;;14.13;11.97;;;;;;;;;;5013449;28;20315;-75
2021/07/23 02:57:18;;;;;;;14.40;12.07;;;;;;;;;;5013198;28;20212;-76
2021/07/23 02:59:45;;;;;;;14.17;11.63;;;;;;;;;;5011910;28;20720;-76
2021/07/23 03:02:12;;;;;;;14.13;11.93;;;;;;;;;;5013265;28;20205;-76
2021/07/23 03:04:39;;;;;;;15.77;12.00;;;;;;;;;;5013343;28;20224;-76
2021/07/23 03:07:08;;;;;;;18.10;12.17;;;;;;;;;;5012760;28;20313;-76
2021/07/23 03:09:35;;;;;;;16.63;11.80;;;;;;;;;;5012714;28;20316;-76
2021/07/23 03:12:02;;;;;;;16.90;12.00;;;;;;;;;;5011669;28;20262;-77
2021/07/23 03:14:29;;;;;;;15.73;12.17;;;;;;;;;;5012474;28;20233;-76
2021/07/23 03:16:57;;;;;;;14.80;11.83;;;;;;;;;;5012879;28;20201;-76
2021/07/23 03:19:24;;;;;;;16.50;12.87;;;;;;;;;;5013058;28;20295;-76
2021/07/23 03:21:54;;;;;;;17.70;12.23;;;;;;;;;;5012434;28;20645;-76
2021/07/23 03:24:22;;;;;;;17.00;12.93;;;;;;;;;;5011751;28;20193;-75
2021/07/23 03:26:49;;;;;;;14.77;12.53;;;;;;;;;;5012613;28;20297;-75
2021/07/23 03:29:16;;;;;;;15.70;12.47;;;;;;;;;;5012265;28;20208;-75
2021/07/23 03:31:44;;;;;;;16.00;12.70;;;;;;;;;;5012557;28;20201;-76
2021/07/23 03:34:11;;;;;;;14.17;12.13;;;;;;;;;;5012717;28;20229;-76
2021/07/23 03:36:38;;;;;;;16.80;12.30;;;;;;;;;;5012458;28;20235;-75
2021/07/23 03:39:05;;;;;;;16.97;12.53;;;;;;;;;;5012582;28;20204;-76
2021/07/23 03:41:34;;;;;;;16.10;13.23;;;;;;;;;;5012771;28;20288;-76
2021/07/23 03:44:01;;;;;;;14.83;12.60;;;;;;;;;;5012640;28;20287;-76
2021/07/23 03:46:28;;;;;;;15.73;12.77;;;;;;;;;;5012516;28;20287;-75
2021/07/23 03:48:56;;;;;;;18.20;13.50;;;;;;;;;;5012358;28;20294;-76
2021/07/23 03:51:23;;;;;;;18.50;14.47;;;;;;;;;;5012225;28;20248;-76
2021/07/23 03:53:51;;;;;;;18.20;13.70;;;;;;;;;;5012476;28;20311;-76
2021/07/23 03:56:18;;;;;;;16.13;13.00;;;;;;;;;;5012685;28;20295;-76
2021/07/23 03:58:46;;;;;;;16.10;13.23;;;;;;;;;;5012453;28;20287;-75
2021/07/23 04:01:13;;;;;;;18.23;13.93;;;;;;;;;;5012221;28;20221;-75
2021/07/23 04:03:41;;;;;;;15.70;12.60;;;;;;;;;;5012278;28;20296;-76
2021/07/23 04:06:08;;;;;;;16.37;13.50;;;;;;;;;;5012373;28;20264;-75
2021/07/23 04:08:35;;;;;;;16.80;13.80;;;;;;;;;;5012073;28;20312;-76
2021/07/23 04:11:02;;;;;;;19.50;13.73;;;;;;;;;;5012004;28;20259;-76
2021/07/23 04:13:30;;;;;;;18.33;13.03;;;;;;;;;;5012409;28;20304;-76
2021/07/23 04:15:58;;;;;;;16.30;13.90;;;;;;;;;;5012131;28;20292;-75
2021/07/23 04:18:25;;;;;;;18.90;14.30;;;;;;;;;;5012143;28;20287;-76
2021/07/23 04:20:53;;;;;;;16.97;13.83;;;;;;;;;;5012067;28;20287;-76
2021/07/23 04:23:20;;;;;;;16.43;13.53;;;;;;;;;;5012135;28;20743;-76
2021/07/23 04:25:47;;;;;;;16.20;13.67;;;;;;;;;;5012289;28;20308;-76
2021/07/23 04:28:15;;;;;;;16.87;14.00;;;;;;;;;;5015934;28;20197;-76
2021/07/23 04:30:42;;;;;;;16.67;13.50;;;;;;;;;;5016139;28;20292;-75
2021/07/23 04:33:11;;;;;;;18.23;14.07;;;;;;;;;;5016160;28;20284;-75
2021/07/23 04:35:38;;;;;;;19.33;14.07;;;;;;;;;;5015623;28;20662;-76
2021/07/23 04:38:05;;;;;;;17.40;14.37;;;;;;;;;;5016148;28;20634;-75
2021/07/23 04:40:32;;;;;;;16.53;13.87;;;;;;;;;;5015700;28;20665;-76
2021/07/23 04:42:59;;;;;;;17.60;14.40;;;;;;;;;;5015941;28;20211;-75
2021/07/23 04:45:26;;;;;;;17.70;13.80;;;;;;;;;;5015976;28;20292;-76
2021/07/23 04:47:53;;;;;;;17.57;14.10;;;;;;;;;;5015483;28;20299;-76
2021/07/23 04:50:22;;;;;;;16.73;14.13;;;;;;;;;;5015568;28;20292;-76
2021/07/23 04:52:49;;;;;;;18.33;13.90;;;;;;;;;;5015609;28;20715;-75
2021/07/23 04:55:17;;;;;;;15.43;13.67;;;;;;;;;;5015472;28;20779;-75
2021/07/23 04:57:45;;;;;;;16.30;13.53;;;;;;;;;;5015576;28;20209;-76
2021/07/23 05:00:13;;;;;;;16.57;13.43;;;;;;;;;;5015863;28;20200;-76
2021/07/23 05:02:42;;;;;;;17.77;13.37;;;;;;;;;;5014453;28;20293;-75
2021/07/23 05:05:11;;;;;;;19.70;14.03;;;;;;;;;;5015408;28;20193;-76
2021/07/23 05:07:39;;;;;;;17.80;13.40;;;;;;;;;;5014243;28;20197;-75
2021/07/23 05:10:07;;;;;;;14.93;13.33;;;;;;;;;;5015335;28;20233;-75
2021/07/23 05:12:34;;;;;;;17.53;13.67;;;;;;;;;;5015291;28;20200;-76
2021/07/23 05:15:03;;;;;;;17.07;13.30;;;;;;;;;;5015119;28;20304;-75
2021/07/23 05:17:31;;;;;;;17.87;13.57;;;;;;;;;;5014938;28;20707;-75
2021/07/23 05:19:59;;;;;;;19.90;13.50;;;;;;;;;;5014951;28;20207;-75
2021/07/23 05:22:26;;;;;;;16.03;13.47;;;;;;;;;;5015076;28;20764;-75
2021/07/23 05:24:54;;;;;;;17.93;12.93;;;;;;;;;;5015200;28;20323;-75
2021/07/23 05:27:22;;;;;;;16.90;13.03;;;;;;;;;;5015264;28;20232;-75
2021/07/23 05:29:49;;;;;;;17.60;12.83;;;;;;;;;;5014879;28;20300;-75
2021/07/23 05:32:16;;;;;;;15.20;12.73;;;;;;;;;;5014602;28;20807;-76
2021/07/23 05:34:43;;;;;;;14.90;12.23;;;;;;;;;;5015016;28;20315;-75
2021/07/23 05:37:11;;;;;;;19.70;12.63;;;;;;;;;;5014565;28;20208;-76
2021/07/23 05:39:41;;;;;;;14.87;11.93;;;;;;;;;;5014788;28;20229;-75
2021/07/23 05:42:11;;;;;;;18.50;12.00;;;;;;;;;;5014783;28;20201;-76
2021/07/23 05:44:38;;;;;;;14.63;12.10;;;;;;;;;;5014451;28;20228;-75
2021/07/23 05:47:06;;;;;;;15.18;11.55;;;;;;;;;;5014141;28;20284;-75
2021/07/23 05:49:33;;;;;;;15.13;11.95;;;;;;;;;;5014492;28;20884;-76
2021/07/23 05:52:00;;;;;;;14.73;11.90;;;;;;;;;;5014643;28;20211;-75
2021/07/23 05:54:27;;;;;;;14.13;11.70;;;;;;;;;;5014602;28;20221;-75
2021/07/23 05:56:54;;;;;;;16.27;11.77;;;;;;;;;;5014710;28;20205;-75
2021/07/23 05:59:23;;;;;;;15.60;11.25;;;;;;;;;;5014397;28;20288;-75
2021/07/23 06:01:50;;;;;;;17.60;11.65;;;;;;;;;;5014141;28;20255;-75
2021/07/23 06:04:17;;;;;;;14.55;10.88;;;;;;;;;;5014449;28;20288;-76
2021/07/23 06:06:44;;;;;;;13.10;11.65;;;;;;;;;;5014179;28;20236;-76
2021/07/23 06:09:13;;;;;;;12.98;11.55;;;;;;;;;;5013836;28;20319;-75
2021/07/23 06:11:40;;;;;;;16.05;12.05;;;;;;;;;;5014066;28;20236;-75
2021/07/23 06:14:07;;;;;;;14.27;12.23;;;;;;;;;;5014062;28;20201;-75
2021/07/23 06:16:36;;;;;;;13.63;11.43;;;;;;;;;;5013779;28;21158;-75
2021/07/23 06:19:03;;;;;;;14.20;11.60;;;;;;;;;;5014006;28;20288;-75
2021/07/23 06:21:30;;;;;;;17.38;11.68;;;;;;;;;;5014127;28;20292;-75
2021/07/23 06:23:57;;;;;;;13.93;11.27;;;;;;;;;;5013879;28;20284;-76
2021/07/23 06:26:25;;;;;;;13.48;11.13;;;;;;;;;;5013920;28;20611;-75
2021/07/23 06:28:52;;;;;;;15.98;11.02;;;;;;;;;;5013712;28;20759;-75
2021/07/23 06:31:19;;;;;;;12.70;11.07;;;;;;;;;;5013539;28;20296;-75
2021/07/23 06:33:48;;;;;;;16.08;10.80;;;;;;;;;;5013854;28;20291;-76
2021/07/23 06:36:15;;;;;;;13.43;11.13;;;;;;;;;;5013802;28;20269;-75
2021/07/23 06:38:43;;;;;;;13.95;10.82;;;;;;;;;;5013874;28;20288;-76
2021/07/23 06:41:10;;;;;;;12.77;10.93;;;;;;;;;;5013722;28;20292;-75
2021/07/23 06:43:37;;;;;;;15.07;11.73;;;;;;;;;;5013936;28;20203;-76
2021/07/23 06:46:04;;;;;;;16.67;10.82;;;;;;;;;;5013160;28;20550;-75
2021/07/23 06:48:32;;;;;;;11.50;10.30;;;;;;;;;;5013030;28;20292;-76
2021/07/23 06:51:01;;;;;;;12.75;10.65;;;;;;;;;;5013689;28;20205;-76
2021/07/23 06:53:28;;;;;;;13.02;10.93;;;;;;;;;;5013444;28;20303;-76
2021/07/23 06:55:55;;;;;;;11.68;10.48;;;;;;;;;;5013429;28;20319;-76
2021/07/23 06:58:23;;;;;;;14.70;10.50;;;;;;;;;;5013336;28;20384;-76
2021/07/23 07:00:50;;;;;;;11.35;10.15;;;;;;;;;;5013005;28;20201;-76
2021/07/23 07:03:17;;;;;;;12.65;10.38;;;;;;;;;;5013047;28;20299;-76
2021/07/23 07:05:48;;;;;;;12.30;10.45;;;;;;;;;;5013565;28;20288;-76
2021/07/23 07:08:17;;;;;;;11.23;9.68;;;;;;;;;;5013060;28;20971;-76
2021/07/23 07:10:44;;;;;;;11.27;10.02;;;;;;;;;;5011646;28;20329;-77
2021/07/23 07:13:11;;;;;;;11.93;10.57;;;;;;;;;;5012856;28;20673;-76
2021/07/23 07:15:38;;;;;;;10.35;9.30;;;;;;;;;;5012702;28;20795;-76
2021/07/23 07:18:05;;;;;;;11.50;9.02;;;;;;;;;;5012915;28;20721;-76
2021/07/23 07:20:33;;;;;;;11.48;8.77;;;;;;;;;;5012766;28;20244;-76
2021/07/23 07:23:01;;;;;;;10.15;9.05;;;;;;;;;;5012962;28;20284;-76
2021/07/23 07:25:31;;;;;;;11.07;9.30;;;;;;;;;;5013051;28;20284;-76
2021/07/23 07:27:58;;;;;;;13.35;9.45;;;;;;;;;;5012622;28;20689;-76
2021/07/23 07:30:25;;;;;;;10.82;8.90;;;;;;;;;;5012490;28;20248;-76
2021/07/23 07:32:52;;;;;;;10.57;9.52;;;;;;;;;;5012894;28;20255;-76
2021/07/23 07:35:19;;;;;;;10.52;9.30;;;;;;;;;;5012524;28;20264;-76
2021/07/23 07:37:47;;;;;;;11.13;9.73;;;;;;;;;;5012782;28;20274;-76
2021/07/23 07:40:14;;;;;;;12.00;9.38;;;;;;;;;;5011327;28;20288;-77
2021/07/23 07:42:43;;;;;;;13.00;9.05;;;;;;;;;;5012547;28;20283;-76
2021/07/23 07:45:10;;;;;;;12.30;9.02;;;;;;;;;;5012681;28;20220;-76
2021/07/23 07:47:37;;;;;;;10.18;9.15;;;;;;;;;;5012545;28;20283;-76
2021/07/23 07:50:05;;;;;;;10.10;8.55;;;;;;;;;;5012517;28;20735;-76
2021/07/23 07:52:32;;;;;;;10.80;9.45;;;;;;;;;;5012659;28;20292;-76
2021/07/23 07:55:00;;;;;;;10.27;8.68;;;;;;;;;;5012443;28;20227;-76
2021/07/23 07:57:27;;;;;;;13.00;9.45;;;;;;;;;;5012183;28;20607;-77
2021/07/23 07:59:57;;;;;;;9.93;8.60;;;;;;;;;;5012351;28;20207;-76
2021/07/23 08:02:24;;;;;;;11.05;8.68;;;;;;;;;;5011847;28;20561;-77
2021/07/23 08:04:52;;;;;;;10.27;8.57;;;;;;;;;;5012319;28;20197;-76
2021/07/23 08:07:21;;;;;;;9.40;8.43;;;;;;;;;;5012190;28;20232;-77
2021/07/23 08:09:51;;;;;;;9.30;8.40;;;;;;;;;;5012200;28;20601;-77
2021/07/23 08:12:18;;;;;;;10.95;9.48;;;;;;;;;;5012204;28;20201;-77
2021/07/23 08:14:46;;;;;;;12.73;8.98;;;;;;;;;;5012518;28;20288;-76
2021/07/23 08:17:14;;;;;;;9.38;7.95;;;;;;;;;;5012386;28;20287;-76
2021/07/23 08:19:42;;;;;;;11.88;8.82;;;;;;;;;;5012394;28;20301;-76
2021/07/23 08:22:09;;;;;;;10.73;8.85;;;;;;;;;;5012312;28;20303;-77
2021/07/23 08:24:38;;;;;;;11.98;8.95;;;;;;;;;;5010931;28;20299;-76
2021/07/23 08:27:05;;;;;;;11.70;8.38;;;;;;;;;;5012027;28;20224;-76
2021/07/23 08:29:33;;;;;;;9.95;8.95;;;;;;;;;;5011983;28;20296;-77
2021/07/23 08:32:07;;;;;;;11.07;8.23;;;;;;;;;;5012139;28;20284;-76
2021/07/23 08:34:35;;;;;;;10.18;8.50;;;;;;;;;;5012074;28;20208;-77
2021/07/23 08:37:03;;;;;;;10.32;8.80;;;;;;;;;;5012081;28;20256;-76
2021/07/23 08:39:30;;;;;;;11.23;8.93;;;;;;;;;;5012268;28;20236;-76
2021/07/23 08:41:57;;;;;;;10.73;8.00;;;;;;;;;;5011953;28;20347;-77
2021/07/23 08:44:26;;;;;;;11.00;8.50;;;;;;;;;;5012070;28;20288;-77
2021/07/23 08:46:53;;;;;;;10.35;8.60;;;;;;;;;;5012003;28;20613;-77
2021/07/23 08:49:20;;;;;;;10.50;8.32;;;;;;;;;;5011882;28;20197;-76
2021/07/23 08:51:52;;;;;;;9.85;8.70;;;;;;;;;;5011815;28;20895;-76
2021/07/23 08:54:19;;;;;;;10.90;8.73;;;;;;;;;;5011845;28;20289;-77
2021/07/23 08:56:48;;;;;;;10.30;8.13;;;;;;;;;;5011275;28;20267;-77
2021/07/23 08:59:15;;;;;;;10.35;8.52;;;;;;;;;;5011612;28;20205;-77
2021/07/23 09:01:58;;;;;;;13.35;9.02;;;;;;;;;;5011674;28;20292;-77
2021/07/23 09:04:29;;;;;;;9.20;8.18;;;;;;;;;;5012033;28;20197;-77
2021/07/23 09:07:11;;;;;;;13.10;8.63;;;;;;;;;;5012017;28;20208;-77
2021/07/23 09:09:40;;;;;;;12.60;8.70;;;;;;;;;;5010967;28;20243;-77
2021/07/23 09:12:07;;;;;;;10.55;8.80;;;;;;;;;;5012394;28;20287;-77
2021/07/23 09:14:35;;;;;;;9.77;8.77;;;;;;;;;;5014999;28;20205;-76
2021/07/23 09:17:02;;;;;;;9.88;8.40;;;;;;;;;;5013493;28;20259;-77
2021/07/23 09:19:29;;;;;;;11.18;8.60;;;;;;;;;;5015048;28;20275;-77
2021/07/23 09:21:57;;;;;;;9.48;8.57;;;;;;;;;;5014989;28;20288;-77
2021/07/23 09:24:24;;;;;;;9.40;8.50;;;;;;;;;;5015162;28;20644;-77
2021/07/23 09:26:53;;;;;;;10.63;8.65;;;;;;;;;;5015018;28;20300;-77
2021/07/23 09:29:20;;;;;;;10.10;8.73;;;;;;;;;;5015050;28;20300;-76
2021/07/23 09:32:02;;;;;;;9.38;8.32;;;;;;;;;;5014810;28;20702;-76
2021/07/23 09:34:32;;;;;;;9.75;8.70;;;;;;;;;;5014720;28;20295;-76
2021/07/23 09:37:08;;;;;;;12.48;9.00;;;;;;;;;;5014844;28;20224;-76
2021/07/23 09:39:35;;;;;;;10.27;8.85;;;;;;;;;;5014586;28;20288;-77
2021/07/23 09:42:04;;;;;;;9.57;8.48;;;;;;;;;;5015070;28;20204;-76
2021/07/23 09:44:32;;;;;;;10.60;8.25;;;;;;;;;;5014732;28;20202;-76
2021/07/23 09:46:59;;;;;;;8.80;7.90;;;;;;;;;;5014884;28;20288;-76
2021/07/23 09:49:28;;;;;;;12.00;8.32;;;;;;;;;;5014967;28;20296;-77
2021/07/23 09:51:57;;;;;;;9.85;8.48;;;;;;;;;;5014491;28;20685;-77
2021/07/23 09:54:24;;;;;;;11.00;8.35;;;;;;;;;;5014360;28;20201;-77
2021/07/23 09:56:52;;;;;;;9.55;8.55;;;;;;;;;;5014501;28;20229;-77
2021/07/23 09:59:23;;;;;;;9.82;8.68;;;;;;;;;;5014591;28;20287;-77
2021/07/23 10:01:54;;;;;;;10.38;9.27;;;;;;;;;;5014269;28;20205;-77
2021/07/23 10:04:24;;;;;;;9.45;7.90;;;;;;;;;;5014406;28;20288;-77
2021/07/23 10:06:57;;;;;;;12.93;8.95;;;;;;;;;;5014420;28;20201;-76
2021/07/23 10:09:26;;;;;;;10.73;8.98;;;;;;;;;;5014056;28;20647;-77
2021/07/23 10:11:54;;;;;;;11.85;8.43;;;;;;;;;;5014151;28;20683;-77
2021/07/23 10:14:24;;;;;;;11.02;8.68;;;;;;;;;;5014377;28;20296;-77
2021/07/23 10:16:53;;;;;;;11.90;8.48;;;;;;;;;;5014137;28;20235;-77
2021/07/23 10:19:23;;;;;;;9.90;8.30;;;;;;;;;;5014295;28;20651;-77
2021/07/23 10:21:50;;;;;;;11.60;8.18;;;;;;;;;;5013650;28;20681;-77
2021/07/23 10:24:18;;;;;;;9.48;8.50;;;;;;;;;;5013258;28;20252;-77
2021/07/23 10:26:47;;;;;;;9.30;8.27;;;;;;;;;;5014136;28;20630;-77
2021/07/23 10:29:14;;;;;;;10.23;8.52;;;;;;;;;;5013700;28;20295;-77
2021/07/23 10:31:44;;;;;;;11.45;8.70;;;;;;;;;;5013760;28;20296;-77
2021/07/23 10:34:11;;;;;;;8.70;7.78;;;;;;;;;;5013920;28;20212;-77
2021/07/23 10:36:42;;;;;;;13.05;8.45;;;;;;;;;;5013726;28;20600;-76
2021/07/23 10:39:17;;;;;;;10.60;8.10;;;;;;;;;;5013849;28;20567;-77
2021/07/23 10:42:04;;;;;;;9.05;8.15;;;;;;;;;;5013941;28;20200;-77
2021/07/23 10:44:50;;;;;;;9.25;8.23;;;;;;;;;;5013587;28;20693;-77
2021/07/23 10:47:35;;;;;;;11.32;9.10;;;;;;;;;;5013860;28;20229;-77
2021/07/23 10:50:02;;;;;;;12.38;8.90;;;;;;;;;;5013604;28;20286;-77
2021/07/23 10:52:35;;;;;;;10.15;8.93;;;;;;;;;;5013417;28;20211;-77
2021/07/23 10:55:20;;;;;;;13.40;8.35;;;;;;;;;;5013296;28;20505;-77
2021/07/23 10:58:08;;;;;;;12.32;8.00;;;;;;;;;;5013535;28;20681;-77
2021/07/23 11:00:45;;;;;;;14.98;8.73;;;;;;;;;;5013063;28;20720;-77
2021/07/23 11:03:35;;;;;;;12.27;8.35;;;;;;;;;;5013170;28;20687;-77
2021/07/23 11:06:14;;;;;;;9.88;8.35;;;;;;;;;;5012649;28;20287;-77
2021/07/23 11:08:45;;;;;;;12.63;8.27;;;;;;;;;;5013039;28;20224;-77
2021/07/23 11:11:13;;;;;;;9.38;8.30;;;;;;;;;;5011675;28;20211;-77
2021/07/23 11:13:41;;;;;;;11.00;8.98;;;;;;;;;;5013191;28;20291;-77
2021/07/23 11:16:12;;;;;;;10.93;8.90;;;;;;;;;;5012837;28;20319;-77
2021/07/23 11:18:51;;;;;;;10.50;8.93;;;;;;;;;;5012964;28;20201;-77
2021/07/23 11:21:19;;;;;;;9.68;8.68;;;;;;;;;;5012771;28;20242;-77
2021/07/23 11:23:47;;;;;;;10.75;8.90;;;;;;;;;;5013012;28;20300;-77
2021/07/23 11:26:15;;;;;;;14.68;9.15;;;;;;;;;;5012945;28;20200;-77
2021/07/23 11:28:49;;;;;;;10.73;8.52;;;;;;;;;;5012711;28;20215;-77
2021/07/23 11:31:31;;;;;;;10.75;8.60;;;;;;;;;;5012889;28;20204;-77
2021/07/23 11:33:59;;;;;;;10.05;8.25;;;;;;;;;;5013035;28;20673;-77
2021/07/23 11:36:38;;;;;;;9.77;8.77;;;;;;;;;;5012432;28;20315;-77
2021/07/23 11:39:06;;;;;;;9.93;8.55;;;;;;;;;;5012744;28;20287;-77
2021/07/23 11:41:33;;;;;;;10.15;8.68;;;;;;;;;;5012793;28;20205;-77
2021/07/23 11:44:07;;;;;;;10.93;8.63;;;;;;;;;;5012258;28;20283;-77
2021/07/23 11:46:35;;;;;;;11.02;8.77;;;;;;;;;;5012525;28;20207;-77
2021/07/23 11:49:02;;;;;;;12.50;9.20;;;;;;;;;;5012403;28;20291;-77
2021/07/23 11:51:44;;;;;;;10.38;8.65;;;;;;;;;;5012594;28;20727;-77
2021/07/23 11:54:11;;;;;;;10.30;9.30;;;;;;;;;;5012671;28;20584;-77
2021/07/23 11:56:39;;;;;;;9.93;8.43;;;;;;;;;;5012381;28;20261;-77
2021/07/23 11:59:06;;;;;;;10.18;8.93;;;;;;;;;;5012485;28;20292;-77
2021/07/23 12:01:37;;;;;;;9.75;8.38;;;;;;;;;;5012259;28;20291;-77
2021/07/23 12:04:04;;;;;;;11.15;8.90;;;;;;;;;;5012362;28;20292;-77
2021/07/23 12:06:32;;;;;;;12.68;8.85;;;;;;;;;;5012166;28;20203;-77
2021/07/23 12:09:03;;;;;;;16.33;10.13;;;;;;;;;;5012233;28;20344;-78
2021/07/23 12:11:31;;;;;;;10.98;9.50;;;;;;;;;;5012186;28;20212;-77
2021/07/23 12:13:59;;;;;;;10.27;9.27;;;;;;;;;;5012197;28;20197;-77
2021/07/23 12:16:27;;;;;;;10.95;9.23;;;;;;;;;;5011849;28;20714;-77
2021/07/23 12:18:57;;;;;;;11.13;9.93;;;;;;;;;;5012161;28;20201;-77
2021/07/23 12:21:25;;;;;;;11.18;8.77;;;;;;;;;;5012006;28;20208;-77
2021/07/23 12:24:00;;;;;;;10.60;9.15;;;;;;;;;;5012219;28;20208;-76
2021/07/23 12:26:31;;;;;;;13.50;9.65;;;;;;;;;;5012036;28;20203;-77
2021/07/23 12:28:59;;;;;;;10.45;9.38;;;;;;;;;;5012023;28;20304;-78
2021/07/23 12:31:26;;;;;;;11.85;8.60;;;;;;;;;;5011857;28;20732;-77
2021/07/23 12:34:03;;;;;;;13.02;9.05;;;;;;;;;;5011563;28;20293;-77
2021/07/23 12:36:30;;;;;;;19.75;10.30;;;;;;;;;;5011565;28;20759;-77
2021/07/23 12:39:02;;;;;;;10.60;9.50;;;;;;;;;;5012374;28;20197;-77
2021/07/23 12:41:29;;;;;;;10.65;9.65;;;;;;;;;;5011992;28;20219;-77
2021/07/23 12:44:06;;;;;;;11.43;9.55;;;;;;;;;;5011905;28;20296;-77
2021/07/23 12:46:34;;;;;;;14.00;9.63;;;;;;;;;;5011655;28;20759;-77
2021/07/23 12:49:14;;;;;;;11.40;9.52;;;;;;;;;;5015549;28;20263;-77
2021/07/23 12:51:42;;;;;;;12.82;9.57;;;;;;;;;;5015847;28;20204;-77
2021/07/23 12:54:11;;;;;;;11.80;9.85;;;;;;;;;;5015731;28;20291;-77
2021/07/23 12:56:39;;;;;;;11.20;9.65;;;;;;;;;;5015236;28;20712;-77
2021/07/23 12:59:26;;;;;;;10.68;9.10;;;;;;;;;;5015381;28;20205;-77
2021/07/23 13:01:53;;;;;;;12.90;9.73;;;;;;;;;;5015231;28;20316;-76
2021/07/23 13:04:20;;;;;;;15.95;9.52;;;;;;;;;;5015344;28;20657;-77
2021/07/23 13:06:48;;;;;;;12.00;9.63;;;;;;;;;;5015518;28;20296;-77
2021/07/23 13:09:17;;;;;;;13.55;9.75;;;;;;;;;;5015215;28;20276;-77
2021/07/23 13:11:44;;;;;;;11.77;10.45;;;;;;;;;;5015194;28;20205;-77
2021/07/23 13:14:11;;;;;;;13.95;10.98;;;;;;;;;;5015496;28;20233;-77
2021/07/23 13:16:39;;;;;;;11.02;9.93;;;;;;;;;;5014850;28;20236;-77
2021/07/23 13:19:06;;;;;;;15.57;10.13;;;;;;;;;;5015335;28;20201;-77
2021/07/23 13:21:33;;;;;;;14.07;9.88;;;;;;;;;;5015516;28;20288;-77
2021/07/23 13:24:01;;;;;;;10.73;9.63;;;;;;;;;;5015241;28;20284;-77
2021/07/23 13:26:30;;;;;;;14.77;10.60;;;;;;;;;;5015122;28;20739;-77
2021/07/23 13:28:57;;;;;;;15.02;10.15;;;;;;;;;;5015307;28;20292;-77
2021/07/23 13:31:24;;;;;;;11.30;9.73;;;;;;;;;;5015053;28;20197;-77
2021/07/23 13:33:52;;;;;;;11.88;9.90;;;;;;;;;;5015099;28;20240;-77
2021/07/23 13:36:23;;;;;;;10.90;9.65;;;;;;;;;;5015016;28;20287;-77
2021/07/23 13:38:53;;;;;;;14.50;10.00;;;;;;;;;;5015130;28;20284;-77
2021/07/23 13:41:22;;;;;;;10.48;9.38;;;;;;;;;;5015018;28;20205;-77
2021/07/23 13:43:51;;;;;;;11.80;9.35;;;;;;;;;;5014647;28;20304;-77
2021/07/23 13:46:18;;;;;;;12.18;10.60;;;;;;;;;;5014325;28;20255;-77
2021/07/23 13:48:47;;;;;;;12.20;9.98;;;;;;;;;;5015195;28;20290;-76
2021/07/23 13:51:15;;;;;;;13.10;9.95;;;;;;;;;;5014661;28;20208;-77
2021/07/23 13:53:43;;;;;;;12.75;9.65;;;;;;;;;;5014656;28;20570;-77
2021/07/23 13:56:12;;;;;;;12.35;9.85;;;;;;;;;;5013476;28;20201;-77
2021/07/23 13:58:39;;;;;;;17.98;10.68;;;;;;;;;;5013076;28;20256;-77
2021/07/23 14:01:09;;;;;;;13.30;10.35;;;;;;;;;;5014490;28;20620;-77
2021/07/23 14:03:36;;;;;;;13.70;9.88;;;;;;;;;;5014461;28;20300;-77
2021/07/23 14:06:03;;;;;;;19.45;10.55;;;;;;;;;;5014556;28;20208;-77
2021/07/23 14:08:30;;;;;;;11.18;9.70;;;;;;;;;;5014041;28;20763;-77
2021/07/23 14:10:58;;;;;;;11.52;9.77;;;;;;;;;;5013988;28;20764;-77
2021/07/23 14:13:25;;;;;;;12.23;9.55;;;;;;;;;;5014292;28;20256;-77
2021/07/23 14:15:52;;;;;;;13.50;9.23;;;;;;;;;;5013866;28;20299;-76
2021/07/23 14:18:21;;;;;;;13.52;9.48;;;;;;;;;;5013940;28;20315;-77
2021/07/23 14:20:48;;;;;;;12.57;8.95;;;;;;;;;;5013844;28;20196;-77
2021/07/23 14:23:15;;;;;;;10.10;9.07;;;;;;;;;;5013699;28;20560;-77
2021/07/23 14:25:43;;;;;;;12.23;9.38;;;;;;;;;;5013822;28;20205;-77
2021/07/23 14:28:10;;;;;;;11.07;9.18;;;;;;;;;;5014027;28;20637;-78
2021/07/23 14:30:37;;;;;;;9.77;8.77;;;;;;;;;;5013427;28;20304;-77